createdAt,value
2022-08-15T00:00:34.555Z,18.80
2022-08-15T00:03:09.953Z,18.59
2022-08-15T00:05:41.271Z,18.66
2022-08-15T00:08:49.607Z,18.66
2022-08-15T00:11:18.402Z,18.62
2022-08-15T00:14:00.155Z,18.57
2022-08-15T00:16:37.260Z,18.45
2022-08-15T00:19:09.809Z,18.41
2022-08-15T00:21:39.510Z,18.44
2022-08-15T00:24:20.387Z,18.35
2022-08-15T00:26:54.733Z,18.23
2022-08-15T00:29:38.063Z,18.34
2022-08-15T00:33:03.076Z,18.35
2022-08-15T00:35:02.640Z,18.16
2022-08-15T00:38:12.331Z,18.14
2022-08-15T00:40:31.516Z,17.98
2022-08-15T00:43:00.797Z,17.94
2022-08-15T00:45:34.303Z,18.00
2022-08-15T00:48:20.561Z,18.16
2022-08-15T00:50:48.986Z,18.24
2022-08-15T00:53:17.817Z,18.23
2022-08-15T00:55:48.597Z,18.26
2022-08-15T00:58:34.148Z,18.35
2022-08-15T01:01:10.059Z,18.33
2022-08-15T01:03:53.112Z,18.43
2022-08-15T01:06:30.761Z,18.12
2022-08-15T01:09:11.674Z,18.22
2022-08-15T01:11:46.142Z,18.01
2022-08-15T01:14:55.744Z,18.03
2022-08-15T01:17:07.574Z,17.94
2022-08-15T01:19:42.873Z,17.89
2022-08-15T01:22:35.428Z,17.82
2022-08-15T01:25:25.008Z,17.89
2022-08-15T01:28:02.197Z,17.88
2022-08-15T01:31:01.345Z,17.92
2022-08-15T01:33:29.786Z,18.00
2022-08-15T01:36:01.738Z,18.07
2022-08-15T01:39:00.019Z,18.01
2022-08-15T01:41:42.430Z,17.98
2022-08-15T01:44:36.513Z,18.03
2022-08-15T01:47:15.323Z,18.14
2022-08-15T01:49:59.254Z,17.98
2022-08-15T01:52:57.479Z,18.06
2022-08-15T01:55:43.895Z,18.18
2022-08-15T01:58:14.577Z,18.11
2022-08-15T02:00:55.275Z,18.07
2022-08-15T02:03:35.027Z,18.05
2022-08-15T02:06:34.536Z,18.07
2022-08-15T02:09:18.120Z,18.08
2022-08-15T02:12:00.156Z,18.09
2022-08-15T02:14:38.349Z,18.11
2022-08-15T02:17:14.773Z,18.24
2022-08-15T02:19:50.341Z,18.12
2022-08-15T02:22:26.852Z,17.82
2022-08-15T02:24:59.291Z,17.65
2022-08-15T02:27:32.217Z,17.70
2022-08-15T02:30:07.129Z,17.85
2022-08-15T02:32:38.121Z,17.97
2022-08-15T02:35:09.955Z,18.01
2022-08-15T02:37:39.592Z,18.02
2022-08-15T02:40:44.543Z,18.02
2022-08-15T02:43:03.255Z,17.92
2022-08-15T02:45:38.277Z,17.88
2022-08-15T02:48:28.822Z,17.94
2022-08-15T02:51:03.722Z,18.04
2022-08-15T02:53:32.850Z,18.13
2022-08-15T02:56:13.332Z,18.26
2022-08-15T02:58:43.114Z,18.30
2022-08-15T03:01:15.200Z,18.32
2022-08-15T03:03:50.761Z,18.32
2022-08-15T03:06:31.584Z,18.55
2022-08-15T03:09:08.677Z,18.69
2022-08-15T03:11:57.178Z,18.65
2022-08-15T03:14:36.324Z,18.53
2022-08-15T03:17:10.616Z,18.63
2022-08-15T03:19:45.288Z,18.65
2022-08-15T03:22:35.550Z,18.63
2022-08-15T03:25:05.288Z,18.67
2022-08-15T03:27:34.694Z,18.60
2022-08-15T03:30:08.549Z,18.61
2022-08-15T03:32:54.947Z,18.83
2022-08-15T03:35:29.812Z,18.71
2022-08-15T03:38:05.724Z,18.72
2022-08-15T03:40:38.772Z,18.78
2022-08-15T03:43:13.327Z,18.79
2022-08-15T03:45:50.133Z,18.67
2022-08-15T03:48:28.164Z,18.68
2022-08-15T03:50:59.584Z,18.76
2022-08-15T03:53:34.435Z,18.61
2022-08-15T03:56:06.878Z,18.52
2022-08-15T03:58:40.130Z,18.42
2022-08-15T04:01:17.225Z,18.29
2022-08-15T04:03:47.898Z,18.34
2022-08-15T04:06:27.971Z,18.43
2022-08-15T04:09:12.938Z,18.50
2022-08-15T04:11:47.049Z,18.70
2022-08-15T04:14:31.436Z,18.75
2022-08-15T04:17:12.631Z,18.69
2022-08-15T04:19:55.918Z,18.56
2022-08-15T04:22:53.653Z,18.39
2022-08-15T04:25:38.447Z,18.56
2022-08-15T04:28:29.407Z,18.53
2022-08-15T04:31:12.461Z,18.33
2022-08-15T04:34:22.133Z,18.43
2022-08-15T04:36:37.943Z,18.50
2022-08-15T04:39:06.706Z,18.74
2022-08-15T04:41:50.382Z,18.76
2022-08-15T04:44:28.668Z,18.87
2022-08-15T04:46:59.041Z,19.04
2022-08-15T04:49:29.396Z,19.17
2022-08-15T04:52:08.258Z,19.35
2022-08-15T04:54:37.018Z,19.55
2022-08-15T04:57:17.679Z,19.79
2022-08-15T05:00:05.677Z,19.99
2022-08-15T05:03:04.220Z,20.05
2022-08-15T05:05:37.286Z,19.75
2022-08-15T05:08:14.252Z,20.07
2022-08-15T05:10:45.485Z,19.85
2022-08-15T05:13:16.936Z,20.34
2022-08-15T05:15:53.894Z,20.57
2022-08-15T05:18:28.177Z,21.00
2022-08-15T05:20:59.651Z,20.90
2022-08-15T05:23:42.755Z,21.08
2022-08-15T05:26:58.250Z,21.11
2022-08-15T05:29:27.901Z,21.07
2022-08-15T05:31:58.647Z,20.86
2022-08-15T05:34:37.118Z,21.63
2022-08-15T05:37:10.989Z,21.50
2022-08-15T05:39:42.819Z,21.66
2022-08-15T05:42:31.808Z,22.11
2022-08-15T05:45:30.897Z,22.72
2022-08-15T05:48:20.140Z,22.31
2022-08-15T05:51:00.303Z,23.08
2022-08-15T05:53:38.478Z,23.31
2022-08-15T05:56:21.262Z,23.24
2022-08-15T05:58:57.031Z,22.84
2022-08-15T06:01:32.764Z,23.12
2022-08-15T06:04:30.478Z,22.94
2022-08-15T06:07:06.386Z,23.63
2022-08-15T06:09:43.137Z,24.36
2022-08-15T06:12:27.389Z,23.80
2022-08-15T06:15:05.851Z,23.34
2022-08-15T06:17:42.968Z,23.54
2022-08-15T06:20:37.101Z,23.79
2022-08-15T06:23:37.075Z,24.07
2022-08-15T06:26:40.416Z,24.11
2022-08-15T06:29:34.692Z,24.04
2022-08-15T06:32:22.972Z,24.20
2022-08-15T06:35:01.486Z,24.03
2022-08-15T06:37:35.638Z,24.39
2022-08-15T06:40:36.470Z,23.60
2022-08-15T06:43:05.003Z,24.34
2022-08-15T06:46:01.184Z,24.52
2022-08-15T06:48:58.322Z,25.02
2022-08-15T06:51:23.558Z,24.01
2022-08-15T06:53:56.750Z,24.60
2022-08-15T06:56:33.831Z,25.19
2022-08-15T06:59:14.506Z,24.79
2022-08-15T07:02:16.245Z,25.12
2022-08-15T07:04:53.641Z,25.00
2022-08-15T07:07:35.767Z,25.05
2022-08-15T07:10:14.505Z,25.39
2022-08-15T07:12:52.694Z,24.61
2022-08-15T07:15:28.771Z,24.97
2022-08-15T07:18:07.425Z,25.17
2022-08-15T07:20:39.718Z,25.85
2022-08-15T07:23:20.471Z,24.87
2022-08-15T07:25:52.460Z,25.46
2022-08-15T07:28:29.376Z,25.30
2022-08-15T07:31:07.540Z,25.30
2022-08-15T07:33:43.714Z,25.11
2022-08-15T07:36:29.540Z,25.36
2022-08-15T07:39:03.609Z,25.49
2022-08-15T07:41:43.519Z,25.39
2022-08-15T07:44:28.963Z,26.00
2022-08-15T07:47:01.022Z,26.63
2022-08-15T07:49:37.298Z,26.41
2022-08-15T07:52:08.013Z,26.24
2022-08-15T07:54:50.607Z,26.18
2022-08-15T08:00:39.120Z,26.97
2022-08-15T08:03:19.451Z,26.78
2022-08-15T08:05:57.562Z,26.30
2022-08-15T08:08:44.637Z,26.57
2022-08-15T08:11:25.261Z,27.71
2022-08-15T08:14:40.449Z,28.45
2022-08-15T08:16:59.273Z,29.20
2022-08-15T08:19:38.641Z,30.40
2022-08-15T08:22:24.906Z,29.68
2022-08-15T08:25:08.604Z,30.97
2022-08-15T08:27:53.763Z,31.56
2022-08-15T08:30:44.421Z,28.21
2022-08-15T08:33:22.431Z,29.30
2022-08-15T08:36:02.276Z,30.08
2022-08-15T08:39:15.809Z,29.00
2022-08-15T08:41:56.197Z,30.27
2022-08-15T08:44:35.377Z,28.46
2022-08-15T08:47:19.706Z,28.62
2022-08-15T08:50:34.587Z,26.90
2022-08-15T08:53:04.500Z,28.22
2022-08-15T08:55:50.158Z,28.75
2022-08-15T08:58:36.098Z,28.17
2022-08-15T09:01:17.037Z,28.52
2022-08-15T09:03:50.829Z,28.89
2022-08-15T09:06:26.008Z,28.68
2022-08-15T09:09:03.074Z,28.20
2022-08-15T09:11:44.915Z,27.69
2022-08-15T09:14:32.641Z,27.62
2022-08-15T09:17:31.027Z,28.54
2022-08-15T09:20:12.294Z,28.65
2022-08-15T09:22:48.245Z,28.27
2022-08-15T09:25:17.426Z,28.28
2022-08-15T09:27:57.753Z,28.95
2022-08-15T09:30:44.635Z,29.20
2022-08-15T09:33:52.977Z,29.27
2022-08-15T09:36:50.040Z,29.47
2022-08-15T09:39:42.052Z,30.36
2022-08-15T09:42:35.308Z,30.34
2022-08-15T09:45:45.530Z,30.35
2022-08-15T09:48:49.162Z,29.52
2022-08-15T09:51:39.495Z,30.01
2022-08-15T09:54:28.744Z,29.82
2022-08-15T09:57:24.579Z,31.31
2022-08-15T09:59:58.331Z,31.72
2022-08-15T10:02:41.363Z,32.81
2022-08-15T10:05:24.225Z,35.37
2022-08-15T10:07:55.818Z,37.58
2022-08-15T10:10:42.489Z,36.36
2022-08-15T10:13:15.604Z,36.02
2022-08-15T10:15:51.641Z,33.66
2022-08-15T10:18:56.818Z,33.83
2022-08-15T10:21:34.061Z,34.70
2022-08-15T10:24:02.455Z,33.99
2022-08-15T10:26:34.643Z,36.01
2022-08-15T10:29:13.097Z,34.90
2022-08-15T10:31:55.617Z,35.15
2022-08-15T10:34:40.089Z,34.60
2022-08-15T10:37:19.876Z,34.43
2022-08-15T10:40:29.422Z,36.32
2022-08-15T10:43:13.370Z,35.33
2022-08-15T10:45:54.323Z,32.18
2022-08-15T10:48:44.794Z,34.22
2022-08-15T10:51:27.153Z,35.71
2022-08-15T10:54:11.776Z,34.82
2022-08-15T10:57:05.584Z,35.38
2022-08-15T10:59:41.883Z,33.58
2022-08-15T11:02:37.630Z,33.65
2022-08-15T11:05:11.581Z,32.13
2022-08-15T11:07:58.172Z,31.20
2022-08-15T11:10:34.304Z,30.84
2022-08-15T11:13:09.967Z,32.60
2022-08-15T11:15:56.328Z,32.13
2022-08-15T11:18:31.466Z,32.82
2022-08-15T11:21:16.164Z,34.31
2022-08-15T11:23:44.509Z,33.95
2022-08-15T11:26:18.810Z,34.14
2022-08-15T11:28:58.140Z,33.41
2022-08-15T11:31:33.913Z,33.03
2022-08-15T11:34:23.856Z,33.35
2022-08-15T11:36:59.253Z,31.87
2022-08-15T11:39:32.637Z,30.13
2022-08-15T11:42:07.650Z,29.93
2022-08-15T11:44:42.027Z,29.80
2022-08-15T11:47:14.762Z,30.12
2022-08-15T11:49:51.766Z,29.81
2022-08-15T11:52:40.728Z,28.60
2022-08-15T11:55:24.020Z,29.99
2022-08-15T11:57:56.418Z,31.36
2022-08-15T12:00:28.534Z,30.63
2022-08-15T12:03:17.559Z,30.14
2022-08-15T12:06:08.294Z,30.01
2022-08-15T12:08:35.660Z,29.45
2022-08-15T12:11:07.582Z,29.16
2022-08-15T12:13:41.407Z,29.29
2022-08-15T12:16:26.751Z,29.76
2022-08-15T12:18:59.098Z,29.76
2022-08-15T12:21:28.451Z,30.13
2022-08-15T12:24:05.166Z,29.48
2022-08-15T12:26:40.392Z,29.70
2022-08-15T12:29:20.884Z,29.99
2022-08-15T12:31:55.083Z,30.38
2022-08-15T12:34:29.011Z,30.12
2022-08-15T12:37:05.376Z,29.46
2022-08-15T12:39:41.595Z,29.34
2022-08-15T12:42:47.713Z,29.21
2022-08-15T12:45:13.582Z,29.26
2022-08-15T12:48:05.324Z,28.92
2022-08-15T12:50:32.393Z,28.47
2022-08-15T12:53:08.721Z,28.33
2022-08-15T12:55:38.979Z,28.50
2022-08-15T12:58:07.747Z,28.16
2022-08-15T13:01:02.455Z,27.59
2022-08-15T13:03:39.446Z,28.11
2022-08-15T13:06:31.977Z,27.88
2022-08-15T13:09:03.852Z,27.90
2022-08-15T13:11:32.422Z,28.11
2022-08-15T13:14:01.461Z,28.21
2022-08-15T13:17:06.339Z,28.53
2022-08-15T13:19:24.236Z,27.96
2022-08-15T13:22:33.077Z,27.73
2022-08-15T13:25:00.986Z,28.22
2022-08-15T13:27:31.021Z,28.77
2022-08-15T13:30:00.736Z,27.96
2022-08-15T13:32:32.988Z,28.18
2022-08-15T13:35:08.294Z,27.86
2022-08-15T13:38:01.089Z,28.12
2022-08-15T13:40:29.233Z,28.56
2022-08-15T13:43:03.287Z,28.35
2022-08-15T13:45:47.962Z,29.05
2022-08-15T13:48:36.109Z,28.73
2022-08-15T13:51:11.454Z,29.64
2022-08-15T13:54:30.920Z,29.15
2022-08-15T13:56:32.658Z,29.01
2022-08-15T13:59:01.595Z,28.93
2022-08-15T14:01:34.414Z,28.41
2022-08-15T14:04:07.442Z,28.05
2022-08-15T14:06:40.553Z,28.50
2022-08-15T14:10:05.686Z,28.31
2022-08-15T14:12:13.951Z,28.19
2022-08-15T14:14:46.872Z,27.87
2022-08-15T14:17:37.167Z,28.57
2022-08-15T14:20:26.396Z,28.16
2022-08-15T14:22:58.299Z,28.24
2022-08-15T14:27:04.570Z,27.92
2022-08-15T14:28:19.172Z,27.94
2022-08-15T14:30:55.138Z,27.72
2022-08-15T14:39:12.474Z,27.48
2022-08-15T14:41:43.396Z,25.44
2022-08-15T14:44:48.012Z,25.06
2022-08-15T14:47:02.081Z,25.25
2022-08-15T14:50:53.596Z,25.16
2022-08-15T14:52:26.755Z,24.74
2022-08-15T14:54:56.091Z,24.31
2022-08-15T14:57:26.350Z,24.41
2022-08-15T14:59:59.142Z,24.46
2022-08-15T15:02:35.985Z,24.83
2022-08-15T15:05:08.030Z,24.88
2022-08-15T15:07:54.681Z,24.89
2022-08-15T15:10:29.469Z,25.23
2022-08-15T15:13:00.290Z,25.24
2022-08-15T15:15:39.850Z,25.14
2022-08-15T15:18:38.216Z,24.62
2022-08-15T15:21:00.030Z,24.47
2022-08-15T15:23:29.998Z,24.39
2022-08-15T15:25:59.170Z,24.61
2022-08-15T15:28:41.426Z,24.58
2022-08-15T15:31:12.812Z,24.36
2022-08-15T15:33:43.526Z,24.45
2022-08-15T15:36:29.443Z,24.28
2022-08-15T15:39:03.746Z,24.18
2022-08-15T15:41:46.173Z,23.82
2022-08-15T15:44:19.385Z,24.02
2022-08-15T15:46:52.025Z,24.47
2022-08-15T15:49:28.900Z,24.58
2022-08-15T15:51:59.577Z,24.78
2022-08-15T15:54:35.229Z,24.90
2022-08-15T15:57:20.386Z,24.80
2022-08-15T15:59:59.218Z,25.03
2022-08-15T16:02:48.105Z,25.16
2022-08-15T16:05:21.728Z,24.69
2022-08-15T16:07:55.920Z,23.99
2022-08-15T16:10:40.141Z,23.39
2022-08-15T16:13:17.069Z,22.98
2022-08-15T16:15:52.121Z,22.51
2022-08-15T16:18:26.705Z,22.54
2022-08-15T16:21:00.284Z,22.42
2022-08-15T16:23:47.440Z,22.22
2022-08-15T16:26:31.388Z,21.56
2022-08-15T16:29:04.494Z,20.78
2022-08-15T16:31:45.406Z,20.87
2022-08-15T16:34:28.330Z,20.90
2022-08-15T16:37:05.400Z,21.00
2022-08-15T16:39:45.739Z,21.20
2022-08-15T16:42:41.031Z,21.64
2022-08-15T16:45:16.287Z,21.74
2022-08-15T16:47:59.178Z,21.47
2022-08-15T16:50:38.476Z,21.64
2022-08-15T16:53:23.323Z,22.20
2022-08-15T16:56:05.115Z,22.48
2022-08-15T16:58:46.225Z,22.57
2022-08-15T17:01:39.349Z,22.37
2022-08-15T17:04:45.327Z,22.37
2022-08-15T17:07:23.174Z,22.78
2022-08-15T17:10:04.158Z,22.98
2022-08-15T17:12:54.710Z,22.90
2022-08-15T17:15:35.014Z,23.16
2022-08-15T17:18:23.402Z,22.93
2022-08-15T17:21:02.065Z,22.64
2022-08-15T17:23:40.093Z,22.46
2022-08-15T17:26:58.378Z,22.36
2022-08-15T17:29:11.971Z,22.42
2022-08-15T17:31:43.171Z,22.39
2022-08-15T17:34:37.335Z,22.33
2022-08-15T17:37:05.534Z,21.93
2022-08-15T17:39:52.829Z,21.98
2022-08-15T17:42:23.616Z,21.89
2022-08-15T17:45:10.142Z,21.88
2022-08-15T17:47:53.659Z,21.80
2022-08-15T17:50:47.906Z,21.72
2022-08-15T17:53:26.384Z,21.68
2022-08-15T17:56:00.802Z,21.69
2022-08-15T17:58:35.378Z,21.77
2022-08-15T18:01:04.995Z,21.99
2022-08-15T18:03:34.389Z,22.15
2022-08-15T18:06:11.327Z,22.14
2022-08-15T18:08:54.314Z,21.86
2022-08-15T18:11:35.217Z,21.39
2022-08-15T18:14:37.548Z,21.26
2022-08-15T18:16:57.648Z,21.71
2022-08-15T18:19:28.899Z,21.84
2022-08-15T18:22:01.549Z,21.84
2022-08-15T18:24:52.692Z,21.88
2022-08-15T18:27:54.284Z,21.85
2022-08-15T18:30:40.685Z,21.98
2022-08-15T18:33:57.265Z,22.00
2022-08-15T18:36:27.260Z,22.04
2022-08-15T18:39:12.103Z,21.98
2022-08-15T18:41:40.568Z,21.92
2022-08-15T18:44:21.632Z,21.94
2022-08-15T18:46:59.810Z,21.86
2022-08-15T18:49:28.276Z,21.80
2022-08-15T18:52:04.640Z,21.88
2022-08-15T18:54:48.739Z,21.78
2022-08-15T18:57:42.924Z,21.78
2022-08-15T19:00:23.155Z,21.70
2022-08-15T19:02:57.349Z,21.61
2022-08-15T19:05:32.029Z,21.67
2022-08-15T19:08:26.321Z,21.74
2022-08-15T19:13:57.233Z,21.55
2022-08-15T19:16:40.923Z,21.47
2022-08-15T19:19:21.548Z,21.49
2022-08-15T19:21:52.113Z,21.42
2022-08-15T19:24:26.623Z,21.56
2022-08-15T19:24:28.742Z,21.38
2022-08-15T19:27:13.728Z,21.12
2022-08-15T19:29:58.817Z,21.11
2022-08-15T19:32:41.107Z,21.15
2022-08-15T19:35:16.804Z,21.12
2022-08-15T19:38:00.387Z,21.01
2022-08-15T19:40:36.250Z,21.14
2022-08-15T19:43:20.216Z,21.15
2022-08-15T19:45:57.622Z,21.14
2022-08-15T19:48:36.061Z,21.04
2022-08-15T19:51:22.584Z,20.96
2022-08-15T19:55:22.323Z,20.79
2022-08-15T19:57:51.395Z,20.92
2022-08-15T20:00:17.388Z,20.82
2022-08-15T20:02:59.079Z,20.71
2022-08-15T20:06:06.783Z,20.81
2022-08-15T20:08:38.023Z,20.75
2022-08-15T20:11:17.227Z,20.71
2022-08-15T20:14:01.684Z,20.54
2022-08-15T20:16:55.791Z,20.56
2022-08-15T20:19:42.086Z,20.51
2022-08-15T20:22:34.130Z,20.48
2022-08-15T20:25:09.412Z,20.54
2022-08-15T20:27:47.130Z,20.52
2022-08-15T20:30:36.621Z,20.36
2022-08-15T20:33:16.792Z,20.26
2022-08-15T20:35:55.915Z,20.27
2022-08-15T20:38:34.509Z,20.27
2022-08-15T20:41:23.487Z,20.22
2022-08-15T20:43:59.566Z,20.07
2022-08-15T20:46:43.172Z,20.01
2022-08-15T20:49:20.362Z,20.01
2022-08-15T20:52:00.881Z,20.01
2022-08-15T20:54:45.320Z,20.04
2022-08-15T20:57:25.801Z,20.07
2022-08-15T21:00:54.710Z,20.07
2022-08-15T21:03:13.749Z,20.06
2022-08-15T21:06:18.271Z,20.13
2022-08-15T21:08:59.788Z,20.17
2022-08-15T21:11:52.952Z,20.03
2022-08-15T21:15:10.348Z,20.10
2022-08-15T21:17:33.617Z,20.24
2022-08-15T21:20:30.776Z,20.17
2022-08-15T21:23:21.604Z,20.24
2022-08-15T21:25:54.174Z,20.19
2022-08-15T21:28:33.530Z,20.22
2022-08-15T21:31:38.976Z,20.09
2022-08-15T21:34:33.488Z,19.97
2022-08-15T21:37:35.962Z,20.00
2022-08-15T21:40:55.943Z,20.14
2022-08-15T21:44:06.166Z,20.17
2022-08-15T21:47:32.584Z,20.18
2022-08-15T21:50:26.480Z,20.28
2022-08-15T21:53:01.140Z,20.31
2022-08-15T21:55:46.095Z,20.29
2022-08-15T21:59:01.065Z,20.22
2022-08-15T22:01:55.313Z,20.22
2022-08-15T22:04:34.969Z,19.99
2022-08-15T22:07:04.444Z,19.97
2022-08-15T22:09:37.360Z,20.00
2022-08-15T22:12:15.792Z,19.98
2022-08-15T22:14:45.542Z,19.96
2022-08-15T22:17:13.808Z,19.85
2022-08-15T22:19:45.867Z,19.65
2022-08-15T22:22:28.553Z,19.68
2022-08-15T22:24:57.520Z,19.62
2022-08-15T22:27:34.186Z,19.43
2022-08-15T22:30:15.047Z,19.27
2022-08-15T22:32:47.135Z,19.25
2022-08-15T22:35:18.202Z,19.32
2022-08-15T22:37:48.275Z,19.26
2022-08-15T22:40:23.013Z,19.25
2022-08-15T22:42:57.030Z,19.21
2022-08-15T22:45:36.290Z,19.17
2022-08-15T22:48:24.293Z,19.13
2022-08-15T22:50:59.547Z,19.10
2022-08-15T22:53:31.987Z,19.06
2022-08-15T22:56:52.570Z,18.92
2022-08-15T22:58:51.563Z,18.75
2022-08-15T23:01:25.177Z,18.82
2022-08-15T23:03:59.991Z,18.70
2022-08-15T23:06:38.908Z,18.75
2022-08-15T23:09:18.835Z,18.64
2022-08-15T23:11:50.170Z,18.56
2022-08-15T23:14:25.133Z,18.62
2022-08-15T23:17:08.626Z,18.63
2022-08-15T23:19:41.091Z,18.63
2022-08-15T23:22:32.336Z,18.66
2022-08-15T23:25:03.409Z,18.69
2022-08-15T23:27:36.077Z,18.61
2022-08-15T23:30:45.373Z,18.74
2022-08-15T23:33:00.530Z,18.84
2022-08-15T23:35:32.131Z,18.91
2022-08-15T23:38:11.027Z,19.06
2022-08-15T23:40:50.715Z,19.51
2022-08-15T23:43:19.533Z,19.80
2022-08-15T23:45:54.284Z,20.02
2022-08-15T23:48:28.879Z,20.00
2022-08-15T23:51:03.798Z,19.90
2022-08-15T23:53:36.067Z,19.75
2022-08-15T23:56:32.266Z,19.93
2022-08-15T23:58:56.784Z,20.19
